sensor_id;sensor_type;location;lat;lon;timestamp;P1;durP1;ratioP1;P2;durP2;ratioP2
56039;SDS011;43937;41.366;2.072;2024-02-28T00:00:09;3.60;;;1.90;;
56039;SDS011;43937;41.366;2.072;2024-02-28T00:02:38;2.65;;;1.70;;
56039;SDS011;43937;41.366;2.072;2024-02-28T00:05:04;3.08;;;1.90;;
56039;SDS011;43937;41.366;2.072;2024-02-28T00:07:30;3.13;;;1.40;;
56039;SDS011;43937;41.366;2.072;2024-02-28T00:09:55;5.20;;;1.50;;
56039;SDS011;43937;41.366;2.072;2024-02-28T00:12:23;4.17;;;1.30;;
56039;SDS011;43937;41.366;2.072;2024-02-28T00:14:50;2.78;;;1.52;;
56039;SDS011;43937;41.366;2.072;2024-02-28T00:17:16;2.40;;;1.43;;
56039;SDS011;43937;41.366;2.072;2024-02-28T00:19:41;2.13;;;1.20;;
56039;SDS011;43937;41.366;2.072;2024-02-28T00:22:08;3.00;;;1.45;;
56039;SDS011;43937;41.366;2.072;2024-02-28T00:24:34;2.88;;;1.30;;
56039;SDS011;43937;41.366;2.072;2024-02-28T00:26:59;4.13;;;1.70;;
56039;SDS011;43937;41.366;2.072;2024-02-28T00:29:25;3.17;;;1.90;;
56039;SDS011;43937;41.366;2.072;2024-02-28T00:31:51;3.97;;;1.55;;
56039;SDS011;43937;41.366;2.072;2024-02-28T00:34:17;2.83;;;1.60;;
56039;SDS011;43937;41.366;2.072;2024-02-28T00:36:42;3.47;;;1.53;;
56039;SDS011;43937;41.366;2.072;2024-02-28T00:39:08;3.23;;;1.80;;
56039;SDS011;43937;41.366;2.072;2024-02-28T00:41:34;3.17;;;1.80;;
56039;SDS011;43937;41.366;2.072;2024-02-28T00:44:00;5.27;;;1.83;;
56039;SDS011;43937;41.366;2.072;2024-02-28T00:46:25;3.77;;;1.83;;
56039;SDS011;43937;41.366;2.072;2024-02-28T00:48:51;5.25;;;1.80;;
56039;SDS011;43937;41.366;2.072;2024-02-28T00:51:16;5.77;;;2.67;;
56039;SDS011;43937;41.366;2.072;2024-02-28T00:53:42;6.57;;;2.60;;
56039;SDS011;43937;41.366;2.072;2024-02-28T00:56:08;7.15;;;2.75;;
56039;SDS011;43937;41.366;2.072;2024-02-28T00:58:33;6.60;;;2.50;;
56039;SDS011;43937;41.366;2.072;2024-02-28T01:00:59;7.90;;;2.50;;
56039;SDS011;43937;41.366;2.072;2024-02-28T01:03:24;9.57;;;3.10;;
56039;SDS011;43937;41.366;2.072;2024-02-28T01:05:50;9.37;;;3.33;;
56039;SDS011;43937;41.366;2.072;2024-02-28T01:08:16;6.47;;;2.90;;
56039;SDS011;43937;41.366;2.072;2024-02-28T01:10:44;7.60;;;3.00;;
56039;SDS011;43937;41.366;2.072;2024-02-28T01:13:10;7.68;;;2.50;;
56039;SDS011;43937;41.366;2.072;2024-02-28T01:15:35;5.23;;;1.80;;
56039;SDS011;43937;41.366;2.072;2024-02-28T01:18:01;3.60;;;1.37;;
56039;SDS011;43937;41.366;2.072;2024-02-28T01:20:26;3.45;;;1.27;;
56039;SDS011;43937;41.366;2.072;2024-02-28T01:22:52;3.27;;;1.03;;
56039;SDS011;43937;41.366;2.072;2024-02-28T01:25:17;3.67;;;1.00;;
56039;SDS011;43937;41.366;2.072;2024-02-28T01:27:43;1.63;;;0.70;;
56039;SDS011;43937;41.366;2.072;2024-02-28T01:30:09;1.45;;;0.90;;
56039;SDS011;43937;41.366;2.072;2024-02-28T01:32:35;2.15;;;0.80;;
56039;SDS011;43937;41.366;2.072;2024-02-28T01:35:01;1.75;;;0.68;;
56039;SDS011;43937;41.366;2.072;2024-02-28T01:37:28;2.07;;;0.60;;
56039;SDS011;43937;41.366;2.072;2024-02-28T01:39:53;1.40;;;0.30;;
56039;SDS011;43937;41.366;2.072;2024-02-28T01:42:18;1.65;;;0.32;;
56039;SDS011;43937;41.366;2.072;2024-02-28T01:44:44;1.43;;;0.47;;
56039;SDS011;43937;41.366;2.072;2024-02-28T01:47:12;1.08;;;0.40;;
56039;SDS011;43937;41.366;2.072;2024-02-28T01:49:39;1.23;;;0.47;;
56039;SDS011;43937;41.366;2.072;2024-02-28T01:52:06;3.07;;;0.50;;
56039;SDS011;43937;41.366;2.072;2024-02-28T01:54:32;1.20;;;0.40;;
56039;SDS011;43937;41.366;2.072;2024-02-28T01:57:00;0.88;;;0.30;;
56039;SDS011;43937;41.366;2.072;2024-02-28T01:59:26;2.33;;;0.43;;
56039;SDS011;43937;41.366;2.072;2024-02-28T02:01:52;0.73;;;0.30;;
56039;SDS011;43937;41.366;2.072;2024-02-28T02:04:19;0.95;;;0.40;;
56039;SDS011;43937;41.366;2.072;2024-02-28T02:06:45;1.40;;;0.40;;
56039;SDS011;43937;41.366;2.072;2024-02-28T02:09:12;1.25;;;0.40;;
56039;SDS011;43937;41.366;2.072;2024-02-28T02:11:38;1.90;;;0.40;;
56039;SDS011;43937;41.366;2.072;2024-02-28T02:14:04;1.07;;;0.40;;
56039;SDS011;43937;41.366;2.072;2024-02-28T02:16:29;1.30;;;0.50;;
56039;SDS011;43937;41.366;2.072;2024-02-28T02:18:55;2.03;;;0.47;;
56039;SDS011;43937;41.366;2.072;2024-02-28T02:21:23;2.58;;;0.52;;
56039;SDS011;43937;41.366;2.072;2024-02-28T02:23:52;2.78;;;0.60;;
56039;SDS011;43937;41.366;2.072;2024-02-28T02:26:17;0.98;;;0.40;;
56039;SDS011;43937;41.366;2.072;2024-02-28T02:28:43;2.00;;;0.40;;
56039;SDS011;43937;41.366;2.072;2024-02-28T02:31:08;5.90;;;0.50;;
56039;SDS011;43937;41.366;2.072;2024-02-28T02:33:35;1.92;;;0.50;;
56039;SDS011;43937;41.366;2.072;2024-02-28T02:36:00;1.40;;;0.50;;
56039;SDS011;43937;41.366;2.072;2024-02-28T02:38:26;2.05;;;0.52;;
56039;SDS011;43937;41.366;2.072;2024-02-28T02:40:52;2.43;;;0.50;;
56039;SDS011;43937;41.366;2.072;2024-02-28T02:43:18;1.15;;;0.52;;
56039;SDS011;43937;41.366;2.072;2024-02-28T02:45:44;2.95;;;0.50;;
56039;SDS011;43937;41.366;2.072;2024-02-28T02:48:09;2.28;;;0.50;;
56039;SDS011;43937;41.366;2.072;2024-02-28T02:50:36;2.40;;;0.50;;
56039;SDS011;43937;41.366;2.072;2024-02-28T02:53:02;1.00;;;0.43;;
56039;SDS011;43937;41.366;2.072;2024-02-28T02:55:28;2.75;;;0.55;;
56039;SDS011;43937;41.366;2.072;2024-02-28T02:57:54;1.23;;;0.60;;
56039;SDS011;43937;41.366;2.072;2024-02-28T03:00:20;2.50;;;0.55;;
56039;SDS011;43937;41.366;2.072;2024-02-28T03:02:46;2.70;;;0.60;;
56039;SDS011;43937;41.366;2.072;2024-02-28T03:05:11;2.63;;;0.53;;
56039;SDS011;43937;41.366;2.072;2024-02-28T03:07:37;2.22;;;0.55;;
56039;SDS011;43937;41.366;2.072;2024-02-28T03:10:02;5.00;;;0.60;;
56039;SDS011;43937;41.366;2.072;2024-02-28T03:12:28;3.47;;;0.60;;
56039;SDS011;43937;41.366;2.072;2024-02-28T03:14:54;2.13;;;0.80;;
56039;SDS011;43937;41.366;2.072;2024-02-28T03:17:19;3.70;;;0.70;;
56039;SDS011;43937;41.366;2.072;2024-02-28T03:19:45;2.70;;;0.70;;
56039;SDS011;43937;41.366;2.072;2024-02-28T03:22:10;3.03;;;0.73;;
56039;SDS011;43937;41.366;2.072;2024-02-28T03:24:35;1.63;;;0.60;;
56039;SDS011;43937;41.366;2.072;2024-02-28T03:27:01;3.30;;;0.87;;
56039;SDS011;43937;41.366;2.072;2024-02-28T03:29:27;4.93;;;2.25;;
56039;SDS011;43937;41.366;2.072;2024-02-28T03:31:53;2.53;;;0.65;;
56039;SDS011;43937;41.366;2.072;2024-02-28T03:34:18;2.30;;;0.70;;
56039;SDS011;43937;41.366;2.072;2024-02-28T03:36:44;4.03;;;0.80;;
56039;SDS011;43937;41.366;2.072;2024-02-28T03:39:09;2.77;;;0.90;;
56039;SDS011;43937;41.366;2.072;2024-02-28T03:41:35;2.40;;;0.70;;
56039;SDS011;43937;41.366;2.072;2024-02-28T03:44:00;2.40;;;0.80;;
56039;SDS011;43937;41.366;2.072;2024-02-28T03:46:26;3.07;;;0.80;;
56039;SDS011;43937;41.366;2.072;2024-02-28T03:48:51;3.65;;;0.82;;
56039;SDS011;43937;41.366;2.072;2024-02-28T03:51:17;2.65;;;0.80;;
56039;SDS011;43937;41.366;2.072;2024-02-28T03:53:42;3.27;;;0.80;;
56039;SDS011;43937;41.366;2.072;2024-02-28T03:56:08;2.47;;;0.80;;
56039;SDS011;43937;41.366;2.072;2024-02-28T03:58:33;2.30;;;0.63;;
56039;SDS011;43937;41.366;2.072;2024-02-28T04:00:59;3.50;;;0.75;;
56039;SDS011;43937;41.366;2.072;2024-02-28T04:03:24;4.50;;;0.90;;
56039;SDS011;43937;41.366;2.072;2024-02-28T04:05:50;3.13;;;0.90;;
56039;SDS011;43937;41.366;2.072;2024-02-28T04:08:15;3.67;;;0.98;;
56039;SDS011;43937;41.366;2.072;2024-02-28T04:10:40;4.90;;;1.10;;
56039;SDS011;43937;41.366;2.072;2024-02-28T04:13:06;4.53;;;1.00;;
56039;SDS011;43937;41.366;2.072;2024-02-28T04:15:32;3.78;;;1.00;;
56039;SDS011;43937;41.366;2.072;2024-02-28T04:17:57;4.15;;;0.90;;
56039;SDS011;43937;41.366;2.072;2024-02-28T04:20:23;2.57;;;0.90;;
56039;SDS011;43937;41.366;2.072;2024-02-28T04:22:48;3.50;;;1.07;;
56039;SDS011;43937;41.366;2.072;2024-02-28T04:25:14;3.63;;;1.10;;
56039;SDS011;43937;41.366;2.072;2024-02-28T04:27:39;1.80;;;0.70;;
56039;SDS011;43937;41.366;2.072;2024-02-28T04:30:05;3.17;;;1.00;;
56039;SDS011;43937;41.366;2.072;2024-02-28T04:32:31;4.13;;;1.02;;
56039;SDS011;43937;41.366;2.072;2024-02-28T04:34:57;3.75;;;0.98;;
56039;SDS011;43937;41.366;2.072;2024-02-28T04:37:22;3.47;;;0.80;;
56039;SDS011;43937;41.366;2.072;2024-02-28T04:39:48;3.57;;;0.90;;
56039;SDS011;43937;41.366;2.072;2024-02-28T04:42:15;5.00;;;1.00;;
56039;SDS011;43937;41.366;2.072;2024-02-28T04:44:41;4.72;;;0.88;;
56039;SDS011;43937;41.366;2.072;2024-02-28T04:47:06;3.13;;;0.90;;
56039;SDS011;43937;41.366;2.072;2024-02-28T04:49:32;3.10;;;0.80;;
56039;SDS011;43937;41.366;2.072;2024-02-28T04:51:58;3.57;;;0.80;;
56039;SDS011;43937;41.366;2.072;2024-02-28T04:54:23;3.00;;;0.70;;
56039;SDS011;43937;41.366;2.072;2024-02-28T04:56:49;3.60;;;0.85;;
56039;SDS011;43937;41.366;2.072;2024-02-28T04:59:16;4.35;;;0.80;;
56039;SDS011;43937;41.366;2.072;2024-02-28T05:01:42;2.97;;;0.80;;
56039;SDS011;43937;41.366;2.072;2024-02-28T05:04:08;3.25;;;0.70;;
56039;SDS011;43937;41.366;2.072;2024-02-28T05:06:34;3.63;;;0.70;;
56039;SDS011;43937;41.366;2.072;2024-02-28T05:09:00;3.50;;;0.65;;
56039;SDS011;43937;41.366;2.072;2024-02-28T05:11:25;4.25;;;0.68;;
56039;SDS011;43937;41.366;2.072;2024-02-28T05:13:51;4.60;;;0.80;;
56039;SDS011;43937;41.366;2.072;2024-02-28T05:16:16;3.07;;;0.80;;
56039;SDS011;43937;41.366;2.072;2024-02-28T05:18:43;2.45;;;0.70;;
56039;SDS011;43937;41.366;2.072;2024-02-28T05:21:10;2.60;;;0.60;;
56039;SDS011;43937;41.366;2.072;2024-02-28T05:23:35;5.53;;;0.93;;
56039;SDS011;43937;41.366;2.072;2024-02-28T05:26:01;2.80;;;0.70;;
56039;SDS011;43937;41.366;2.072;2024-02-28T05:28:29;3.97;;;0.73;;
56039;SDS011;43937;41.366;2.072;2024-02-28T05:30:55;4.00;;;1.00;;
56039;SDS011;43937;41.366;2.072;2024-02-28T05:33:21;4.67;;;0.93;;
56039;SDS011;43937;41.366;2.072;2024-02-28T05:35:46;3.10;;;0.83;;
56039;SDS011;43937;41.366;2.072;2024-02-28T05:38:12;2.65;;;0.90;;
56039;SDS011;43937;41.366;2.072;2024-02-28T05:40:38;5.05;;;0.88;;
56039;SDS011;43937;41.366;2.072;2024-02-28T05:43:03;3.15;;;0.82;;
56039;SDS011;43937;41.366;2.072;2024-02-28T05:45:29;2.67;;;1.00;;
56039;SDS011;43937;41.366;2.072;2024-02-28T05:47:54;4.20;;;0.90;;
56039;SDS011;43937;41.366;2.072;2024-02-28T05:50:20;2.87;;;0.70;;
56039;SDS011;43937;41.366;2.072;2024-02-28T05:52:45;4.63;;;1.08;;
56039;SDS011;43937;41.366;2.072;2024-02-28T05:55:11;6.37;;;1.20;;
56039;SDS011;43937;41.366;2.072;2024-02-28T05:57:37;8.35;;;1.40;;
56039;SDS011;43937;41.366;2.072;2024-02-28T06:00:03;5.53;;;0.80;;
56039;SDS011;43937;41.366;2.072;2024-02-28T06:02:34;4.03;;;0.93;;
56039;SDS011;43937;41.366;2.072;2024-02-28T06:05:01;2.78;;;0.75;;
56039;SDS011;43937;41.366;2.072;2024-02-28T06:07:27;4.27;;;0.90;;
56039;SDS011;43937;41.366;2.072;2024-02-28T06:09:52;3.97;;;0.80;;
56039;SDS011;43937;41.366;2.072;2024-02-28T06:12:17;5.50;;;1.00;;
56039;SDS011;43937;41.366;2.072;2024-02-28T06:14:43;4.67;;;1.00;;
56039;SDS011;43937;41.366;2.072;2024-02-28T06:17:08;2.70;;;0.93;;
56039;SDS011;43937;41.366;2.072;2024-02-28T06:19:34;4.63;;;1.10;;
56039;SDS011;43937;41.366;2.072;2024-02-28T06:21:59;3.90;;;1.30;;
56039;SDS011;43937;41.366;2.072;2024-02-28T06:24:25;3.40;;;1.00;;
56039;SDS011;43937;41.366;2.072;2024-02-28T06:26:50;3.83;;;0.95;;
56039;SDS011;43937;41.366;2.072;2024-02-28T06:29:16;3.30;;;0.90;;
56039;SDS011;43937;41.366;2.072;2024-02-28T06:31:41;4.27;;;1.00;;
56039;SDS011;43937;41.366;2.072;2024-02-28T06:34:06;3.78;;;0.95;;
56039;SDS011;43937;41.366;2.072;2024-02-28T06:36:32;3.77;;;0.87;;
56039;SDS011;43937;41.366;2.072;2024-02-28T06:38:58;5.13;;;1.00;;
56039;SDS011;43937;41.366;2.072;2024-02-28T06:41:23;5.35;;;1.02;;
56039;SDS011;43937;41.366;2.072;2024-02-28T06:43:48;3.87;;;0.90;;
56039;SDS011;43937;41.366;2.072;2024-02-28T06:46:14;4.57;;;1.10;;
56039;SDS011;43937;41.366;2.072;2024-02-28T06:48:39;3.67;;;1.00;;
56039;SDS011;43937;41.366;2.072;2024-02-28T06:51:05;4.53;;;0.90;;
56039;SDS011;43937;41.366;2.072;2024-02-28T06:53:31;4.20;;;1.23;;
56039;SDS011;43937;41.366;2.072;2024-02-28T06:55:56;5.17;;;1.20;;
56039;SDS011;43937;41.366;2.072;2024-02-28T06:58:21;3.90;;;1.02;;
56039;SDS011;43937;41.366;2.072;2024-02-28T07:00:49;6.20;;;1.20;;
56039;SDS011;43937;41.366;2.072;2024-02-28T07:03:15;5.38;;;1.30;;
56039;SDS011;43937;41.366;2.072;2024-02-28T07:05:41;8.68;;;1.50;;
56039;SDS011;43937;41.366;2.072;2024-02-28T07:08:06;11.30;;;1.40;;
56039;SDS011;43937;41.366;2.072;2024-02-28T07:10:31;4.70;;;1.20;;
56039;SDS011;43937;41.366;2.072;2024-02-28T07:12:57;7.20;;;1.10;;
56039;SDS011;43937;41.366;2.072;2024-02-28T07:15:22;3.63;;;1.03;;
56039;SDS011;43937;41.366;2.072;2024-02-28T07:17:48;4.47;;;1.07;;
56039;SDS011;43937;41.366;2.072;2024-02-28T07:20:13;4.68;;;1.25;;
56039;SDS011;43937;41.366;2.072;2024-02-28T07:22:39;7.37;;;1.10;;
56039;SDS011;43937;41.366;2.072;2024-02-28T07:25:05;6.33;;;1.40;;
56039;SDS011;43937;41.366;2.072;2024-02-28T07:27:32;5.57;;;1.20;;
56039;SDS011;43937;41.366;2.072;2024-02-28T07:29:57;5.45;;;1.40;;
56039;SDS011;43937;41.366;2.072;2024-02-28T07:32:23;5.10;;;1.40;;
56039;SDS011;43937;41.366;2.072;2024-02-28T07:34:48;7.10;;;1.40;;
56039;SDS011;43937;41.366;2.072;2024-02-28T07:37:14;7.95;;;1.60;;
56039;SDS011;43937;41.366;2.072;2024-02-28T07:39:39;6.78;;;1.38;;
56039;SDS011;43937;41.366;2.072;2024-02-28T07:42:05;8.67;;;2.00;;
56039;SDS011;43937;41.366;2.072;2024-02-28T07:44:30;5.37;;;1.30;;
56039;SDS011;43937;41.366;2.072;2024-02-28T07:46:57;8.18;;;2.22;;
56039;SDS011;43937;41.366;2.072;2024-02-28T07:49:23;8.23;;;2.00;;
56039;SDS011;43937;41.366;2.072;2024-02-28T07:51:49;9.13;;;2.00;;
56039;SDS011;43937;41.366;2.072;2024-02-28T07:54:15;4.83;;;1.73;;
56039;SDS011;43937;41.366;2.072;2024-02-28T07:56:40;7.50;;;1.80;;
56039;SDS011;43937;41.366;2.072;2024-02-28T07:59:06;9.23;;;1.67;;
56039;SDS011;43937;41.366;2.072;2024-02-28T08:01:31;11.07;;;1.50;;
56039;SDS011;43937;41.366;2.072;2024-02-28T08:03:58;4.33;;;1.10;;
56039;SDS011;43937;41.366;2.072;2024-02-28T08:06:24;5.97;;;1.58;;
56039;SDS011;43937;41.366;2.072;2024-02-28T08:08:50;6.75;;;1.63;;
56039;SDS011;43937;41.366;2.072;2024-02-28T08:11:15;6.60;;;1.65;;
56039;SDS011;43937;41.366;2.072;2024-02-28T08:13:41;8.67;;;2.07;;
56039;SDS011;43937;41.366;2.072;2024-02-28T08:16:08;10.93;;;1.80;;
56039;SDS011;43937;41.366;2.072;2024-02-28T08:18:35;7.28;;;1.90;;
56039;SDS011;43937;41.366;2.072;2024-02-28T08:21:01;5.55;;;1.90;;
56039;SDS011;43937;41.366;2.072;2024-02-28T08:23:28;6.90;;;2.38;;
56039;SDS011;43937;41.366;2.072;2024-02-28T08:25:54;5.47;;;2.10;;
56039;SDS011;43937;41.366;2.072;2024-02-28T08:28:21;7.45;;;2.13;;
56039;SDS011;43937;41.366;2.072;2024-02-28T08:30:48;6.40;;;1.90;;
56039;SDS011;43937;41.366;2.072;2024-02-28T08:33:14;7.80;;;1.80;;
56039;SDS011;43937;41.366;2.072;2024-02-28T08:35:39;6.03;;;1.57;;
56039;SDS011;43937;41.366;2.072;2024-02-28T08:38:05;6.40;;;1.60;;
56039;SDS011;43937;41.366;2.072;2024-02-28T08:40:30;5.50;;;1.50;;
56039;SDS011;43937;41.366;2.072;2024-02-28T08:42:56;6.28;;;1.90;;
56039;SDS011;43937;41.366;2.072;2024-02-28T08:45:22;6.80;;;2.03;;
56039;SDS011;43937;41.366;2.072;2024-02-28T08:47:48;8.13;;;1.70;;
56039;SDS011;43937;41.366;2.072;2024-02-28T08:50:13;6.35;;;1.92;;
56039;SDS011;43937;41.366;2.072;2024-02-28T08:52:39;5.10;;;1.63;;
56039;SDS011;43937;41.366;2.072;2024-02-28T08:55:04;5.90;;;1.53;;
56039;SDS011;43937;41.366;2.072;2024-02-28T08:57:30;7.15;;;2.05;;
56039;SDS011;43937;41.366;2.072;2024-02-28T08:59:55;8.48;;;1.90;;
56039;SDS011;43937;41.366;2.072;2024-02-28T09:02:21;8.97;;;1.60;;
56039;SDS011;43937;41.366;2.072;2024-02-28T09:04:47;5.80;;;1.50;;
56039;SDS011;43937;41.366;2.072;2024-02-28T09:07:17;7.95;;;1.42;;
56039;SDS011;43937;41.366;2.072;2024-02-28T09:09:45;9.50;;;3.92;;
56039;SDS011;43937;41.366;2.072;2024-02-28T09:12:11;4.87;;;1.33;;
56039;SDS011;43937;41.366;2.072;2024-02-28T09:14:37;7.68;;;1.95;;
56039;SDS011;43937;41.366;2.072;2024-02-28T09:17:03;9.55;;;1.85;;
56039;SDS011;43937;41.366;2.072;2024-02-28T09:19:29;7.60;;;1.90;;
56039;SDS011;43937;41.366;2.072;2024-02-28T09:21:55;6.90;;;1.85;;
56039;SDS011;43937;41.366;2.072;2024-02-28T09:24:20;11.32;;;2.60;;
56039;SDS011;43937;41.366;2.072;2024-02-28T09:26:46;8.93;;;2.20;;
56039;SDS011;43937;41.366;2.072;2024-02-28T09:29:11;9.30;;;2.27;;
56039;SDS011;43937;41.366;2.072;2024-02-28T09:31:37;9.88;;;2.15;;
56039;SDS011;43937;41.366;2.072;2024-02-28T09:34:02;7.50;;;2.10;;
56039;SDS011;43937;41.366;2.072;2024-02-28T09:36:32;10.77;;;2.10;;
56039;SDS011;43937;41.366;2.072;2024-02-28T09:39:04;8.95;;;2.00;;
56039;SDS011;43937;41.366;2.072;2024-02-28T09:41:30;10.87;;;2.30;;
56039;SDS011;43937;41.366;2.072;2024-02-28T09:43:55;10.17;;;2.20;;
56039;SDS011;43937;41.366;2.072;2024-02-28T09:46:22;9.07;;;2.17;;
56039;SDS011;43937;41.366;2.072;2024-02-28T09:48:48;8.13;;;1.70;;
56039;SDS011;43937;41.366;2.072;2024-02-28T09:51:16;13.15;;;1.98;;
56039;SDS011;43937;41.366;2.072;2024-02-28T09:53:43;13.40;;;1.77;;
56039;SDS011;43937;41.366;2.072;2024-02-28T09:56:08;12.07;;;2.17;;
56039;SDS011;43937;41.366;2.072;2024-02-28T09:58:34;10.20;;;1.73;;
56039;SDS011;43937;41.366;2.072;2024-02-28T10:01:01;11.25;;;1.80;;
56039;SDS011;43937;41.366;2.072;2024-02-28T10:03:28;7.55;;;1.60;;
56039;SDS011;43937;41.366;2.072;2024-02-28T10:05:57;6.63;;;1.98;;
56039;SDS011;43937;41.366;2.072;2024-02-28T10:08:22;10.38;;;2.13;;
56039;SDS011;43937;41.366;2.072;2024-02-28T10:10:48;7.65;;;1.80;;
56039;SDS011;43937;41.366;2.072;2024-02-28T10:13:17;11.02;;;2.50;;
56039;SDS011;43937;41.366;2.072;2024-02-28T10:15:43;13.35;;;2.35;;
56039;SDS011;43937;41.366;2.072;2024-02-28T10:18:09;13.32;;;2.65;;
56039;SDS011;43937;41.366;2.072;2024-02-28T10:20:34;13.60;;;4.30;;
56039;SDS011;43937;41.366;2.072;2024-02-28T10:23:03;11.67;;;2.80;;
56039;SDS011;43937;41.366;2.072;2024-02-28T10:25:30;10.85;;;2.38;;
56039;SDS011;43937;41.366;2.072;2024-02-28T10:27:59;18.53;;;3.80;;
56039;SDS011;43937;41.366;2.072;2024-02-28T10:30:27;11.77;;;3.65;;
56039;SDS011;43937;41.366;2.072;2024-02-28T10:32:53;10.93;;;3.27;;
56039;SDS011;43937;41.366;2.072;2024-02-28T10:35:19;6.47;;;2.50;;
56039;SDS011;43937;41.366;2.072;2024-02-28T10:37:45;12.60;;;2.58;;
56039;SDS011;43937;41.366;2.072;2024-02-28T10:40:15;10.77;;;2.28;;
56039;SDS011;43937;41.366;2.072;2024-02-28T10:42:42;10.05;;;2.65;;
56039;SDS011;43937;41.366;2.072;2024-02-28T10:45:09;9.38;;;2.17;;
56039;SDS011;43937;41.366;2.072;2024-02-28T10:47:40;12.15;;;2.78;;
56039;SDS011;43937;41.366;2.072;2024-02-28T10:50:06;16.17;;;2.88;;
56039;SDS011;43937;41.366;2.072;2024-02-28T10:52:33;10.02;;;2.45;;
56039;SDS011;43937;41.366;2.072;2024-02-28T10:54:59;10.60;;;2.70;;
56039;SDS011;43937;41.366;2.072;2024-02-28T10:57:26;10.10;;;2.20;;
56039;SDS011;43937;41.366;2.072;2024-02-28T10:59:52;9.10;;;2.40;;
56039;SDS011;43937;41.366;2.072;2024-02-28T11:02:19;9.10;;;2.53;;
56039;SDS011;43937;41.366;2.072;2024-02-28T11:04:45;11.02;;;3.25;;
56039;SDS011;43937;41.366;2.072;2024-02-28T11:07:11;8.98;;;2.80;;
56039;SDS011;43937;41.366;2.072;2024-02-28T11:09:36;13.07;;;2.90;;
56039;SDS011;43937;41.366;2.072;2024-02-28T11:12:03;9.80;;;2.90;;
56039;SDS011;43937;41.366;2.072;2024-02-28T11:14:29;11.55;;;3.30;;
56039;SDS011;43937;41.366;2.072;2024-02-28T11:19:30;35.40;;;10.18;;
56039;SDS011;43937;41.366;2.072;2024-02-28T11:21:58;23.90;;;5.63;;
56039;SDS011;43937;41.366;2.072;2024-02-28T11:24:27;8.95;;;2.70;;
56039;SDS011;43937;41.366;2.072;2024-02-28T11:26:55;10.50;;;2.53;;
56039;SDS011;43937;41.366;2.072;2024-02-28T11:29:21;10.07;;;2.20;;
56039;SDS011;43937;41.366;2.072;2024-02-28T11:31:54;8.45;;;2.60;;
56039;SDS011;43937;41.366;2.072;2024-02-28T11:34:19;9.13;;;3.37;;
56039;SDS011;43937;41.366;2.072;2024-02-28T11:36:49;10.60;;;2.88;;
56039;SDS011;43937;41.366;2.072;2024-02-28T11:39:15;13.10;;;2.70;;
56039;SDS011;43937;41.366;2.072;2024-02-28T11:41:42;12.18;;;3.00;;
56039;SDS011;43937;41.366;2.072;2024-02-28T11:44:11;14.23;;;3.30;;
56039;SDS011;43937;41.366;2.072;2024-02-28T11:46:46;15.90;;;3.47;;
56039;SDS011;43937;41.366;2.072;2024-02-28T11:49:15;12.10;;;2.77;;
56039;SDS011;43937;41.366;2.072;2024-02-28T11:51:41;11.10;;;2.70;;
56039;SDS011;43937;41.366;2.072;2024-02-28T11:54:07;8.37;;;1.90;;
56039;SDS011;43937;41.366;2.072;2024-02-28T11:56:36;9.70;;;2.10;;
56039;SDS011;43937;41.366;2.072;2024-02-28T11:59:02;8.63;;;2.17;;
56039;SDS011;43937;41.366;2.072;2024-02-28T12:01:39;12.32;;;2.45;;
56039;SDS011;43937;41.366;2.072;2024-02-28T12:04:07;9.23;;;2.03;;
56039;SDS011;43937;41.366;2.072;2024-02-28T12:06:35;7.77;;;1.60;;
56039;SDS011;43937;41.366;2.072;2024-02-28T12:09:02;5.05;;;1.77;;
56039;SDS011;43937;41.366;2.072;2024-02-28T12:11:29;8.45;;;1.60;;
56039;SDS011;43937;41.366;2.072;2024-02-28T12:13:55;5.65;;;1.10;;
56039;SDS011;43937;41.366;2.072;2024-02-28T12:16:24;3.60;;;0.90;;
56039;SDS011;43937;41.366;2.072;2024-02-28T12:18:53;8.30;;;2.33;;
56039;SDS011;43937;41.366;2.072;2024-02-28T12:21:19;6.90;;;1.13;;
56039;SDS011;43937;41.366;2.072;2024-02-28T12:23:46;6.80;;;1.10;;
56039;SDS011;43937;41.366;2.072;2024-02-28T12:26:12;7.15;;;1.40;;
56039;SDS011;43937;41.366;2.072;2024-02-28T12:28:37;5.18;;;1.50;;
56039;SDS011;43937;41.366;2.072;2024-02-28T12:31:04;6.13;;;1.00;;
56039;SDS011;43937;41.366;2.072;2024-02-28T12:33:33;5.00;;;1.05;;
56039;SDS011;43937;41.366;2.072;2024-02-28T12:35:59;7.85;;;1.50;;
56039;SDS011;43937;41.366;2.072;2024-02-28T12:38:28;4.85;;;1.80;;
56039;SDS011;43937;41.366;2.072;2024-02-28T12:40:54;4.97;;;1.20;;
56039;SDS011;43937;41.366;2.072;2024-02-28T12:43:19;4.30;;;1.33;;
56039;SDS011;43937;41.366;2.072;2024-02-28T12:45:45;10.23;;;2.37;;
56039;SDS011;43937;41.366;2.072;2024-02-28T12:48:10;7.80;;;2.70;;
56039;SDS011;43937;41.366;2.072;2024-02-28T12:50:35;7.03;;;1.70;;
56039;SDS011;43937;41.366;2.072;2024-02-28T12:53:01;5.40;;;1.27;;
56039;SDS011;43937;41.366;2.072;2024-02-28T12:55:26;5.33;;;1.20;;
56039;SDS011;43937;41.366;2.072;2024-02-28T12:57:52;3.80;;;1.40;;
56039;SDS011;43937;41.366;2.072;2024-02-28T13:00:18;4.93;;;0.80;;
56039;SDS011;43937;41.366;2.072;2024-02-28T13:02:44;5.28;;;0.80;;
56039;SDS011;43937;41.366;2.072;2024-02-28T13:05:10;3.15;;;1.50;;
56039;SDS011;43937;41.366;2.072;2024-02-28T13:07:38;2.53;;;0.90;;
56039;SDS011;43937;41.366;2.072;2024-02-28T13:10:03;3.85;;;0.90;;
56039;SDS011;43937;41.366;2.072;2024-02-28T13:12:30;5.90;;;1.00;;
56039;SDS011;43937;41.366;2.072;2024-02-28T13:14:58;3.78;;;0.85;;
56039;SDS011;43937;41.366;2.072;2024-02-28T13:17:23;5.80;;;0.80;;
56039;SDS011;43937;41.366;2.072;2024-02-28T13:19:49;3.97;;;0.90;;
56039;SDS011;43937;41.366;2.072;2024-02-28T13:22:16;2.25;;;0.63;;
56039;SDS011;43937;41.366;2.072;2024-02-28T13:24:42;3.85;;;0.98;;
56039;SDS011;43937;41.366;2.072;2024-02-28T13:27:08;8.32;;;4.57;;
56039;SDS011;43937;41.366;2.072;2024-02-28T13:29:34;2.93;;;0.70;;
56039;SDS011;43937;41.366;2.072;2024-02-28T13:32:00;2.37;;;0.73;;
56039;SDS011;43937;41.366;2.072;2024-02-28T13:34:26;4.78;;;0.88;;
56039;SDS011;43937;41.366;2.072;2024-02-28T13:36:52;5.03;;;0.93;;
56039;SDS011;43937;41.366;2.072;2024-02-28T13:39:18;4.90;;;0.68;;
56039;SDS011;43937;41.366;2.072;2024-02-28T13:41:43;4.05;;;0.80;;
56039;SDS011;43937;41.366;2.072;2024-02-28T13:44:09;4.77;;;1.37;;
56039;SDS011;43937;41.366;2.072;2024-02-28T13:46:35;5.65;;;1.60;;
56039;SDS011;43937;41.366;2.072;2024-02-28T13:49:02;8.50;;;1.27;;
56039;SDS011;43937;41.366;2.072;2024-02-28T13:51:29;10.73;;;1.30;;
56039;SDS011;43937;41.366;2.072;2024-02-28T13:53:55;7.17;;;1.20;;
56039;SDS011;43937;41.366;2.072;2024-02-28T13:56:20;3.63;;;0.90;;
56039;SDS011;43937;41.366;2.072;2024-02-28T13:58:46;5.80;;;1.40;;
56039;SDS011;43937;41.366;2.072;2024-02-28T14:01:13;4.63;;;1.08;;
56039;SDS011;43937;41.366;2.072;2024-02-28T14:03:39;5.85;;;1.05;;
56039;SDS011;43937;41.366;2.072;2024-02-28T14:06:04;7.82;;;1.35;;
56039;SDS011;43937;41.366;2.072;2024-02-28T14:08:30;3.97;;;1.20;;
56039;SDS011;43937;41.366;2.072;2024-02-28T14:10:56;7.65;;;1.70;;
56039;SDS011;43937;41.366;2.072;2024-02-28T14:13:23;6.82;;;0.98;;
56039;SDS011;43937;41.366;2.072;2024-02-28T14:15:49;4.40;;;0.95;;
56039;SDS011;43937;41.366;2.072;2024-02-28T14:18:16;8.07;;;1.05;;
56039;SDS011;43937;41.366;2.072;2024-02-28T14:20:42;6.18;;;1.00;;
56039;SDS011;43937;41.366;2.072;2024-02-28T14:23:08;5.57;;;1.10;;
56039;SDS011;43937;41.366;2.072;2024-02-28T14:25:34;3.53;;;0.97;;
56039;SDS011;43937;41.366;2.072;2024-02-28T14:27:59;4.20;;;0.90;;
56039;SDS011;43937;41.366;2.072;2024-02-28T14:30:25;5.22;;;0.80;;
56039;SDS011;43937;41.366;2.072;2024-02-28T14:32:50;3.03;;;0.80;;
56039;SDS011;43937;41.366;2.072;2024-02-28T14:35:17;4.45;;;0.90;;
56039;SDS011;43937;41.366;2.072;2024-02-28T14:37:42;6.67;;;1.00;;
56039;SDS011;43937;41.366;2.072;2024-02-28T14:40:09;3.63;;;0.80;;